Accueil
METAR-TAF:

METAR-TAF

Aéroports :

Saint-Moritz, Suisse

Aérodrome de Samedan-Engadin

latitude: 46-32-03N, longitude: 9-53-03E, altitude: 1707 m

Observation

Le bulletin a été fait il y a 24 minutes, à 09:50 UTC
Vent calme
Température -5°C
Humidité 79%
Pression 1008 hPa
Visibilité 10 km ou plus
pas de nuages en-dessous de 1500 mètres et pas de cumulonimbus.

METAR: LSZS 240950Z 00000KT CAVOK M05/M08 Q1008 RMK G

Heure: 11:14 (10:14 UTC)

Prévision

Le bulletin a été fait il y a 1 heure et 49 minutes, à 08:25 UTC
Prévision valable du 24 à 09 UTC au 24 à 18 UTC
Vent 3 kt de direction variable
Visibilité 10 km ou plus
pas de nuages en-dessous de 1500 mètres et pas de cumulonimbus.
Probabilité 30% :
Temporairement
du 24 à 09 UTC au 24 à 18 UTC
Quelques nuages à une hauteur de 5000 ft

TAF: LSZS 240825Z 2409/2418 VRB03KT CAVOK TX03/2413Z PROB30 TEMPO 2409/2418 FEW050

Observations et prévisions météorologiques de plus de 4000 aéroports (messages METAR et TAF).

Les stations disponibles sont représentées par des disques jaunes et rouges sur la carte.

Passer la souris dessus pour voir le nom de la station.

Cliquer dessus pour voir les observations et prévisions météorologiques.

Pour changer de carte: cliquez sur les boutons verts avec une croix noire pour zoomer, sur le bouton vert avec un tiret pour effectuer un zoom arrière, ou sur les flèches vertes pour les cartes adjacentes.


METAR-TAF: